Calumet, MN (55716)

12:53 AM CDT on August 29, 2016 (GMT -0500)
Grand Rapids | | Change Station

Elev 1293 ft 47.24 °N, 93.49 °W | Updated 6 seconds ago

Overcast
Overcast
68.2 °F
Feels Like 68.2 °F
N
1.6
Wind Variable Wind from SE
Gusts 6.0 mph

Today
High -- | Low -- °F
--% Chance of Precip.
Yesterday
High -- | Low -- °F
Precip. -- in
Pressure 30.11 in
Visibility 10.0 miles
Clouds Overcast 3300 ft
Dew Point 64 °F
Humidity 89%
Rainfall 0.00 in
Snow Depth Not available.
6:28 AM 7:57 PM
Waning Crescent, 11% visible
METAR KGPZ 290456Z AUTO 16012KT 10SM OVC033 21/19 A3011 RMK AO2 SLP195 T02060189
Pressure 30.11 in
Visibility 10.0 miles
Clouds Overcast 3300 ft
Dew Point 64 °F
Humidity 89%
Rainfall 0.00 in
Snow Depth Not available.
6:28 AM 7:57 PM
Waning Crescent, 11% visible
METAR KGPZ 290456Z AUTO 16012KT 10SM OVC033 21/19 A3011 RMK AO2 SLP195 T02060189

10-Day Weather Forecast

Almanac

Astronomy

Aug. 29, 2016 Rise Set
Actual Time
Civil Twilight
Nautical Twilight
Astronomical Twilight
Moon
Length of Visible Light
Length of Day
Tomorrow will be .
, % of the Moon is Illuminated

Today's Extremes

State Highs State Lows

Community

WunderPhotos

Upload Photos

1,935,800 photos uploaded!

WunderBlog® & News

Nearby

Air Quality

  Air Quality AQ Index Pollutant
Not available.

Snow Depth

Station Depth Elevation

Earthquake Activity

City Distance Mag. Time & Date
Minimum magnitude displayed is 2.5.

Coastal Water Temperatures

Place Temperature

Stations

Nearby Weather Stations

Station Location Temp. Windchill Dew Point Humidity Wind Precip. Elev Updated Type
                   

Watches & Warnings

There are currently no watches in effect.